Time;durP1;ratioP1;P1;durP2;ratioP2;P2;SDS_P1;SDS_P2;PMS_P1;PMS_P2;Temp;Humidity;BMP_temperature;BMP_pressure;BME280_temperature;BME280_humidity;BME280_pressure;Samples;Min_cycle;Max_cycle;Signal;HPM_P1;HPM_P2
2024/02/09 00:01:15;;;;;;;21.35;8.77;;;;;;;7.39;58.89;93258.81;5022951;28;20040;-77
2024/02/09 00:03:41;;;;;;;23.77;7.65;;;;;;;7.40;58.85;93270.97;5021572;28;20026;-77
2024/02/09 00:06:07;;;;;;;18.92;8.02;;;;;;;7.27;59.16;93275.31;5022861;28;20057;-77
2024/02/09 00:08:33;;;;;;;24.60;8.43;;;;;;;7.23;59.19;93269.81;5022777;28;20033;-77
2024/02/09 00:10:58;;;;;;;21.67;7.65;;;;;;;7.22;59.58;93270.13;5022418;28;20026;-77
2024/02/09 00:13:24;;;;;;;15.05;7.10;;;;;;;7.16;59.70;93281.94;5022842;28;20030;-77
2024/02/09 00:15:49;;;;;;;19.65;6.13;;;;;;;7.11;59.86;93271.50;5022575;28;20060;-77
2024/02/09 00:18:16;;;;;;;15.93;6.20;;;;;;;7.06;60.23;93275.03;5022953;28;20036;-77
2024/02/09 00:20:47;;;;;;;18.05;7.57;;;;;;;7.05;60.12;93278.00;5022896;28;20198;-78
2024/02/09 00:23:15;;;;;;;21.40;7.90;;;;;;;7.01;60.28;93265.34;5023047;28;20030;-78
2024/02/09 00:25:41;;;;;;;20.25;6.78;;;;;;;7.01;60.49;93275.97;5022722;28;20033;-79
2024/02/09 00:28:11;;;;;;;17.58;5.45;;;;;;;6.93;60.70;93274.03;5022809;28;20029;-79
2024/02/09 00:30:40;;;;;;;16.13;4.40;;;;;;;6.81;61.31;93271.19;5023063;28;20324;-79
2024/02/09 00:33:08;;;;;;;15.65;5.88;;;;;;;6.83;61.81;93279.59;5022650;28;20300;-79
2024/02/09 00:35:34;;;;;;;18.20;6.20;;;;;;;6.81;61.80;93279.13;5022647;28;20045;-79
2024/02/09 00:38:00;;;;;;;15.73;6.35;;;;;;;6.76;61.82;93282.69;5022498;28;20033;-77
2024/02/09 00:40:29;;;;;;;17.58;6.40;;;;;;;6.70;61.58;93275.19;5022734;28;20054;-77
2024/02/09 00:42:56;;;;;;;16.10;6.13;;;;;;;6.65;61.64;93276.06;5022365;28;20021;-77
2024/02/09 00:45:23;;;;;;;16.00;6.88;;;;;;;6.64;61.90;93274.50;5024753;28;20038;-77
2024/02/09 00:47:49;;;;;;;22.58;8.80;;;;;;;6.58;62.12;93260.59;5025895;28;20022;-76
2024/02/09 00:50:18;;;;;;;16.88;7.10;;;;;;;6.45;62.45;93264.09;5025890;28;20316;-76
2024/02/09 00:52:51;;;;;;;13.48;6.53;;;;;;;6.41;62.70;93268.44;5025839;28;20042;-76
2024/02/09 00:55:17;;;;;;;17.65;6.72;;;;;;;6.42;62.81;93270.78;5025969;28;20034;-78
2024/02/09 00:57:43;;;;;;;14.52;6.30;;;;;;;6.37;62.74;93264.81;5025663;28;20033;-77
2024/02/09 01:00:13;;;;;;;12.52;5.53;;;;;;;6.39;62.86;93257.34;5025606;28;20298;-77
2024/02/09 01:02:39;;;;;;;15.18;5.88;;;;;;;6.31;62.92;93256.22;5024507;28;20320;-77
2024/02/09 01:05:06;;;;;;;16.98;6.07;;;;;;;6.35;63.08;93267.78;5025305;28;20041;-78
2024/02/09 01:07:32;;;;;;;10.00;5.38;;;;;;;6.25;63.11;93248.69;5025630;28;20037;-78
2024/02/09 01:09:58;;;;;;;15.35;5.57;;;;;;;6.29;63.27;93262.88;5024217;28;20371;-78
2024/02/09 02:45:12;;;;;;;21.88;9.05;;;;;;;5.51;66.88;93268.25;5023468;28;20018;-76
2024/02/09 02:47:51;;;;;;;25.75;8.73;;;;;;;5.51;66.38;93270.88;5022188;28;20021;-76
2024/02/09 03:06:39;;;;;;;24.65;9.00;;;;;;;5.25;67.87;93274.03;5023687;28;20056;-77
2024/02/09 03:09:05;;;;;;;17.30;7.53;;;;;;;5.19;67.69;93281.28;5023099;28;20021;-78
2024/02/09 03:11:30;;;;;;;22.90;8.98;;;;;;;5.18;67.80;93284.19;5023616;28;20096;-77
2024/02/09 03:13:56;;;;;;;19.15;7.75;;;;;;;5.10;68.06;93292.81;5023683;28;20025;-77
2024/02/09 03:16:21;;;;;;;18.02;7.60;;;;;;;5.11;68.29;93291.72;5023643;28;20033;-77
2024/02/09 03:18:46;;;;;;;18.10;8.18;;;;;;;5.14;68.15;93304.34;5023831;28;20051;-78
2024/02/09 03:21:19;;;;;;;15.63;7.15;;;;;;;5.16;68.12;93299.56;5024037;28;20121;-78
2024/02/09 03:23:45;;;;;;;17.42;6.75;;;;;;;5.09;68.16;93307.88;5023271;28;20076;-78
2024/02/09 03:26:10;;;;;;;25.58;7.78;;;;;;;5.07;67.89;93309.22;5023018;28;20026;-78
2024/02/09 03:28:38;;;;;;;19.33;6.40;;;;;;;5.03;68.15;93315.09;5023395;28;20304;-78
2024/02/09 03:31:04;;;;;;;14.27;5.85;;;;;;;4.99;68.33;93300.91;5023183;28;20037;-78
2024/02/09 03:33:29;;;;;;;13.88;6.60;;;;;;;4.91;68.64;93301.59;5023152;28;20415;-77
2024/02/09 03:35:55;;;;;;;16.65;6.43;;;;;;;4.85;69.10;93299.34;5023068;28;20051;-77
2024/02/09 03:38:20;;;;;;;15.80;6.30;;;;;;;4.90;69.04;93302.66;5022836;28;20101;-77
2024/02/09 03:40:51;;;;;;;16.88;7.38;;;;;;;4.89;69.13;93298.44;5023056;28;20223;-77
2024/02/09 03:43:16;;;;;;;13.45;6.80;;;;;;;4.91;68.79;93312.16;5023265;28;20026;-77
2024/02/09 03:45:42;;;;;;;17.17;6.63;;;;;;;4.88;68.79;93309.28;5022734;28;20215;-78
2024/02/09 03:48:07;;;;;;;19.20;6.43;;;;;;;4.86;69.18;93309.59;5022811;28;20068;-77
2024/02/09 03:50:34;;;;;;;16.20;6.78;;;;;;;4.88;69.24;93315.34;5022723;28;20056;-78
2024/02/09 03:53:00;;;;;;;16.00;6.38;;;;;;;4.88;69.06;93323.28;5022875;28;20054;-78
2024/02/09 03:55:25;;;;;;;21.08;7.30;;;;;;;4.83;69.36;93310.94;5021818;28;20386;-77
2024/02/09 03:57:51;;;;;;;19.95;7.13;;;;;;;4.87;68.95;93321.72;5022949;28;20030;-78
2024/02/09 04:00:16;;;;;;;22.05;7.68;;;;;;;4.84;69.40;93317.00;5023028;28;20096;-79
2024/02/09 04:02:43;;;;;;;22.42;7.95;;;;;;;4.80;69.80;93310.75;5022879;28;20220;-79
2024/02/09 04:05:08;;;;;;;20.10;7.60;;;;;;;4.72;69.90;93319.31;5022852;28;20022;-79
2024/02/09 04:07:33;;;;;;;28.15;7.40;;;;;;;4.70;70.11;93318.84;5022932;28;20029;-78
2024/02/09 04:10:01;;;;;;;16.75;7.07;;;;;;;4.75;69.96;93316.91;5022996;28;20048;-77
2024/02/09 04:12:26;;;;;;;17.35;7.32;;;;;;;4.77;70.06;93329.81;5022621;28;20030;-79
2024/02/09 04:14:52;;;;;;;18.42;8.30;;;;;;;4.79;69.87;93332.94;5022988;28;20374;-79
2024/02/09 04:17:17;;;;;;;20.23;6.90;;;;;;;4.77;69.97;93345.66;5023068;28;20040;-79
2024/02/09 04:19:43;;;;;;;18.77;7.47;;;;;;;4.74;70.18;93338.31;5024519;28;20037;-79
2024/02/09 04:22:10;;;;;;;17.05;6.80;;;;;;;4.76;70.11;93347.53;5026208;28;20323;-77
2024/02/09 04:24:38;;;;;;;19.73;6.90;;;;;;;4.76;69.75;93352.00;5026548;28;20076;-78
2024/02/09 04:27:04;;;;;;;16.70;7.45;;;;;;;4.65;69.93;93346.09;5026218;28;20025;-78
2024/02/09 04:29:32;;;;;;;15.98;7.53;;;;;;;4.65;70.25;93350.59;5026207;28;20028;-78
2024/02/09 04:31:58;;;;;;;18.40;7.47;;;;;;;4.67;70.33;93346.59;5026059;28;20018;-79
2024/02/09 04:34:24;;;;;;;20.02;8.13;;;;;;;4.62;70.58;93354.63;5024970;28;20339;-79
2024/02/09 04:36:49;;;;;;;24.05;8.23;;;;;;;4.69;70.09;93357.66;5026123;28;20032;-78
2024/02/09 04:39:15;;;;;;;16.63;7.65;;;;;;;4.66;70.37;93362.72;5026004;28;20325;-77
2024/02/09 04:41:45;;;;;;;20.20;7.28;;;;;;;4.63;70.69;93366.72;5025776;28;20022;-77
2024/02/09 04:44:10;;;;;;;16.65;7.00;;;;;;;4.59;70.79;93358.59;5025944;28;20219;-77
2024/02/09 04:46:36;;;;;;;23.67;8.20;;;;;;;4.55;71.26;93362.09;5025673;28;20029;-77
2024/02/09 04:49:06;;;;;;;22.30;7.47;;;;;;;4.58;71.62;93367.59;5025569;28;20029;-77
2024/02/09 04:51:35;;;;;;;27.33;8.80;;;;;;;4.55;71.58;93377.94;5025398;28;20025;-77
2024/02/09 04:54:01;;;;;;;18.63;8.00;;;;;;;4.59;71.75;93373.66;5025599;28;20028;-77
2024/02/09 04:56:30;;;;;;;20.00;9.05;;;;;;;4.61;71.74;93377.56;5025366;28;20029;-77
2024/02/09 04:59:00;;;;;;;21.17;8.02;;;;;;;4.66;71.69;93374.09;5025324;28;20033;-77
2024/02/09 05:01:29;;;;;;;15.70;6.93;;;;;;;4.64;71.37;93373.59;5025259;28;20225;-77
2024/02/09 05:04:01;;;;;;;21.27;8.13;;;;;;;4.66;71.00;93360.88;5024139;28;20026;-77
2024/02/09 05:06:27;;;;;;;;;;;;;;;4.62;70.94;93373.09;5025881;28;20084;-78
2024/02/09 05:08:54;;;;;;;14.43;6.78;;;;;;;4.54;71.01;93371.88;5025151;28;19909;-77
2024/02/09 05:11:22;;;;;;;21.90;7.25;;;;;;;4.53;71.31;93374.78;5025474;28;20041;-77
2024/02/09 05:13:49;;;;;;;16.92;7.28;;;;;;;4.54;71.15;93379.78;5025390;28;20026;-78
2024/02/09 05:16:16;;;;;;;23.27;7.00;;;;;;;4.55;71.29;93386.63;5025512;28;20374;-78
2024/02/09 05:18:42;;;;;;;17.88;7.30;;;;;;;4.56;71.50;93380.28;5024959;28;20047;-77
2024/02/09 05:21:07;;;;;;;16.70;6.93;;;;;;;4.57;70.95;93375.78;5025224;28;20054;-77
2024/02/09 05:23:33;;;;;;;17.13;7.13;;;;;;;4.54;71.08;93374.50;5025102;28;20324;-76
2024/02/09 05:25:59;;;;;;;20.65;7.00;;;;;;;4.41;71.36;93367.31;5024982;28;20034;-77
2024/02/09 05:28:24;;;;;;;13.38;6.85;;;;;;;4.35;71.76;93365.81;5025038;28;20018;-78
2024/02/09 05:30:52;;;;;;;19.77;8.15;;;;;;;4.37;71.94;93366.31;5023922;28;20056;-77
2024/02/09 05:33:17;;;;;;;16.13;6.75;;;;;;;4.38;71.95;93358.13;5025899;28;20052;-77
2024/02/09 05:35:43;;;;;;;23.20;7.90;;;;;;;4.40;71.76;93349.91;5024960;28;20213;-79
2024/02/09 05:38:08;;;;;;;14.68;7.22;;;;;;;4.38;71.85;93337.00;5024766;28;20206;-79
2024/02/09 05:40:34;;;;;;;20.92;7.82;;;;;;;4.37;71.69;93338.06;5024728;28;20320;-79
2024/02/09 05:43:00;;;;;;;27.95;9.30;;;;;;;4.35;71.48;93344.72;5024696;28;20072;-79
2024/02/09 05:45:26;;;;;;;20.63;8.25;;;;;;;4.37;71.75;93337.28;5024510;28;20025;-80
2024/02/09 05:47:52;;;;;;;28.30;10.98;;;;;;;4.33;71.89;93333.66;5024585;28;20093;-79
2024/02/09 05:50:19;;;;;;;22.48;11.35;;;;;;;4.38;72.09;93339.66;5024599;28;20029;-78
2024/02/09 05:52:45;;;;;;;27.25;10.27;;;;;;;4.35;71.67;93342.84;5024339;28;20042;-78
2024/02/09 05:55:10;;;;;;;27.15;11.63;;;;;;;4.28;72.37;93344.28;5024494;28;20056;-78
2024/02/09 05:57:37;;;;;;;33.80;10.65;;;;;;;4.33;72.81;93344.22;5024163;28;20025;-78
2024/02/09 06:00:03;;;;;;;28.55;11.20;;;;;;;4.37;72.91;93319.59;5024236;28;20048;-78
2024/02/09 06:02:31;;;;;;;27.58;12.00;;;;;;;4.46;73.08;93322.38;5024325;28;20281;-78
2024/02/09 06:04:56;;;;;;;31.63;12.50;;;;;;;4.52;72.90;93321.25;5024252;28;20068;-78
2024/02/09 06:07:27;;;;;;;27.02;12.15;;;;;;;4.59;72.83;93328.78;5024380;28;20018;-78
2024/02/09 06:09:52;;;;;;;32.50;12.68;;;;;;;4.60;72.79;93327.72;5024275;28;20136;-78
2024/02/09 06:12:18;;;;;;;26.88;12.23;;;;;;;4.62;72.95;93326.34;5024316;28;20026;-78
2024/02/09 06:14:43;;;;;;;33.28;12.18;;;;;;;4.69;72.51;93335.75;5024042;28;20328;-78
2024/02/09 06:17:12;;;;;;;30.45;11.38;;;;;;;4.73;72.55;93339.38;5024058;28;20324;-78
2024/02/09 06:19:38;;;;;;;25.15;10.65;;;;;;;4.80;72.54;93350.34;5023931;28;20312;-78
2024/02/09 06:22:04;;;;;;;25.40;10.95;;;;;;;4.79;72.58;93348.78;5023672;28;20029;-78
2024/02/09 06:24:30;;;;;;;23.38;10.40;;;;;;;4.82;72.92;93350.84;5023805;28;20334;-77
2024/02/09 06:26:56;;;;;;;27.50;8.98;;;;;;;4.93;72.90;93340.91;5023789;28;20014;-78
2024/02/09 06:29:22;;;;;;;22.25;11.20;;;;;;;4.99;72.73;93345.81;5023911;28;20068;-78
2024/02/09 06:31:47;;;;;;;23.20;9.93;;;;;;;5.12;72.76;93354.06;5023930;28;20189;-78
2024/02/09 06:34:13;;;;;;;28.35;10.07;;;;;;;5.22;72.25;93362.59;5024378;28;20117;-78
2024/02/09 06:36:39;;;;;;;29.30;10.68;;;;;;;5.33;71.62;93365.03;5023702;28;20033;-78
2024/02/09 06:39:06;;;;;;;24.40;11.18;;;;;;;5.41;70.81;93373.09;5023680;28;20216;-78
2024/02/09 06:41:33;;;;;;;37.97;11.55;;;;;;;5.28;70.58;93367.78;5023427;28;20049;-78
2024/02/09 06:43:59;;;;;;;35.88;9.73;;;;;;;5.26;70.87;93381.28;5022939;28;20024;-77
2024/02/09 06:46:25;;;;;;;31.52;11.95;;;;;;;5.35;70.32;93374.28;5023231;28;20212;-78
2024/02/09 06:48:51;;;;;;;35.05;12.27;;;;;;;5.38;69.79;93386.09;5023078;28;20093;-78
2024/02/09 06:51:20;;;;;;;30.73;11.50;;;;;;;5.31;69.76;93373.28;5023248;28;20026;-79
2024/02/09 06:53:46;;;;;;;30.55;11.93;;;;;;;5.30;70.23;93361.13;5023398;28;20264;-78
2024/02/09 06:56:11;;;;;;;30.10;12.65;;;;;;;5.36;70.62;93364.47;5022992;28;20068;-78
2024/02/09 06:58:38;;;;;;;38.38;12.18;;;;;;;5.49;70.44;93376.13;5023153;28;20033;-78
2024/02/09 07:01:09;;;;;;;32.50;11.68;;;;;;;5.52;70.34;93372.91;5022977;28;20028;-77
2024/02/09 07:03:35;;;;;;;39.92;12.90;;;;;;;5.61;70.37;93379.84;5022984;28;20113;-79
2024/02/09 07:06:03;;;;;;;27.17;11.55;;;;;;;5.75;69.99;93374.56;5022911;28;20041;-78
2024/02/09 07:08:36;;;;;;;22.48;9.95;;;;;;;5.86;69.22;93385.72;5023064;28;20029;-79
2024/02/09 07:11:07;;;;;;;27.25;10.13;;;;;;;5.91;69.38;93390.94;5022917;28;20350;-79
2024/02/09 07:13:33;;;;;;;28.58;11.27;;;;;;;5.97;69.27;93384.50;5022936;28;20030;-79
2024/02/09 07:16:02;;;;;;;39.17;14.55;;;;;;;6.09;68.95;93405.16;5021826;28;20020;-79
2024/02/09 07:18:29;;;;;;;41.60;13.98;;;;;;;6.10;67.95;93395.34;5023172;28;20034;-80
2024/02/09 07:20:54;;;;;;;34.88;12.77;;;;;;;6.12;67.43;93390.53;5023227;28;20040;-81
2024/02/09 07:23:20;;;;;;;45.10;14.68;;;;;;;6.08;67.82;93400.94;5023145;28;20209;-80
2024/02/09 07:25:45;;;;;;;52.90;13.77;;;;;;;6.10;68.02;93396.13;5022967;28;20169;-80
2024/02/09 07:28:11;;;;;;;36.58;13.65;;;;;;;6.21;67.99;93397.50;5022833;28;20129;-80
2024/02/09 07:30:36;;;;;;;28.42;11.77;;;;;;;6.30;67.57;93383.56;5022889;28;20312;-75
2024/02/09 07:33:02;;;;;;;37.40;11.93;;;;;;;6.39;67.09;93389.72;5023084;28;20018;-74
2024/02/09 07:35:27;;;;;;;30.70;12.77;;;;;;;6.49;67.18;93380.75;5022994;28;20030;-75
2024/02/09 07:37:52;;;;;;;29.52;12.57;;;;;;;6.59;67.47;93365.47;5022749;28;20069;-74
2024/02/09 07:40:20;;;;;;;44.50;14.32;;;;;;;6.74;66.84;93369.63;5022889;28;20273;-74
2024/02/09 07:42:46;;;;;;;37.22;11.38;;;;;;;6.91;66.14;93376.88;5023167;28;20040;-78
2024/02/09 07:45:15;;;;;;;42.90;13.32;;;;;;;7.01;65.02;93373.22;5022182;28;20392;-73
2024/02/09 07:47:44;;;;;;;41.92;13.38;;;;;;;7.07;65.30;93361.41;5022905;28;20109;-76
2024/02/09 07:50:13;;;;;;;44.38;13.48;;;;;;;7.22;65.58;93373.50;5021264;28;20421;-76
2024/02/09 07:52:38;;;;;;;39.83;12.20;;;;;;;7.36;65.32;93373.41;5021414;28;20041;-76
2024/02/09 07:55:06;;;;;;;43.25;12.32;;;;;;;7.42;64.08;93378.28;5024802;28;20017;-76
2024/02/09 07:57:32;;;;;;;32.25;12.38;;;;;;;7.48;62.88;93388.78;5026783;28;20018;-75
2024/02/09 07:59:58;;;;;;;23.25;10.35;;;;;;;7.52;62.13;93387.06;5026813;28;20090;-75
2024/02/09 08:02:24;;;;;;;35.83;11.13;;;;;;;7.59;62.00;93387.41;5026524;28;20025;-75
2024/02/09 08:04:49;;;;;;;43.88;11.00;;;;;;;7.70;61.92;93372.81;5026544;28;20072;-75
2024/02/09 08:07:19;;;;;;;34.47;9.57;;;;;;;7.82;61.49;93358.97;5026683;28;20037;-75
2024/02/09 08:09:44;;;;;;;19.40;9.73;;;;;;;7.99;61.63;93351.03;5026631;28;20021;-75
2024/02/09 08:12:12;;;;;;;30.20;8.48;;;;;;;8.19;60.79;93347.00;5026379;28;20096;-75
2024/02/09 08:14:38;;;;;;;18.95;8.10;;;;;;;8.38;59.80;93348.59;5025023;28;20370;-75
2024/02/09 08:17:04;;;;;;;23.50;8.50;;;;;;;8.54;59.77;93341.75;5026205;28;20085;-76
2024/02/09 08:19:32;;;;;;;24.83;8.50;;;;;;;8.63;58.70;93347.88;5026385;28;20076;-75
2024/02/09 08:21:58;;;;;;;28.35;7.80;;;;;;;8.79;57.97;93358.81;5026285;28;20030;-75
2024/02/09 08:24:24;;;;;;;23.50;8.93;;;;;;;8.92;57.18;93356.31;5026188;28;20029;-75
2024/02/09 08:26:49;;;;;;;28.27;8.80;;;;;;;9.01;57.18;93346.44;5026272;28;20330;-75
2024/02/09 08:29:14;;;;;;;28.13;8.68;;;;;;;9.12;57.02;93349.53;5026433;28;20055;-75
2024/02/09 08:31:40;;;;;;;22.83;9.13;;;;;;;9.18;56.93;93342.94;5026223;28;20034;-75
2024/02/09 08:34:05;;;;;;;31.40;8.57;;;;;;;9.28;56.71;93334.66;5026079;28;20026;-75
2024/02/09 08:36:30;;;;;;;29.30;8.32;;;;;;;9.36;56.27;93336.50;5025948;28;20061;-75
2024/02/09 08:38:56;;;;;;;21.15;8.40;;;;;;;9.50;55.49;93333.63;5025730;28;20216;-75
2024/02/09 08:41:21;;;;;;;27.63;8.80;;;;;;;9.61;54.87;93328.75;5025937;28;20025;-74
2024/02/09 08:43:47;;;;;;;23.35;8.18;;;;;;;9.67;55.16;93316.84;5026295;28;20026;-75
2024/02/09 08:46:12;;;;;;;24.13;8.18;;;;;;;9.74;53.97;93327.75;5026071;28;20064;-75
2024/02/09 08:48:38;;;;;;;26.85;8.82;;;;;;;9.81;53.52;93330.69;5025895;28;20041;-76
2024/02/09 08:51:03;;;;;;;23.85;7.50;;;;;;;9.87;53.31;93327.84;5025653;28;20021;-76
2024/02/09 08:53:29;;;;;;;19.67;7.35;;;;;;;9.98;52.84;93326.41;5025741;28;20050;-75
2024/02/09 08:55:54;;;;;;;23.83;8.15;;;;;;;10.10;52.36;93334.47;5025746;28;20125;-77
2024/02/09 08:58:20;;;;;;;22.80;8.27;;;;;;;10.22;51.97;93325.78;5025779;28;20093;-77
2024/02/09 09:00:46;;;;;;;22.83;7.53;;;;;;;10.29;51.84;93319.94;5026035;28;20114;-77
2024/02/09 09:03:12;;;;;;;26.35;7.55;;;;;;;10.39;51.03;93325.69;5025801;28;20022;-76
2024/02/09 09:05:38;;;;;;;25.42;7.70;;;;;;;10.49;50.40;93329.06;5025480;28;20089;-76
2024/02/09 09:08:06;;;;;;;27.63;7.63;;;;;;;10.55;50.29;93336.53;5024414;28;20272;-77
2024/02/09 09:10:31;;;;;;;22.92;8.20;;;;;;;10.67;49.62;93325.19;5025808;28;20049;-77
2024/02/09 09:12:57;;;;;;;19.63;7.53;;;;;;;10.77;49.57;93329.34;5025694;28;20260;-77
2024/02/09 09:15:24;;;;;;;27.60;7.18;;;;;;;10.90;49.44;93330.94;5025207;28;20025;-76
2024/02/09 09:17:49;;;;;;;25.15;8.02;;;;;;;11.06;48.78;93319.66;5025089;28;20093;-77
2024/02/09 09:20:15;;;;;;;23.95;7.45;;;;;;;11.17;48.50;93323.47;5025283;28;20084;-77
2024/02/09 09:22:41;;;;;;;23.92;6.50;;;;;;;11.30;48.51;93325.06;5025334;28;20331;-77
2024/02/09 09:25:07;;;;;;;19.20;7.07;;;;;;;11.40;48.15;93321.97;5025368;28;20021;-77
2024/02/09 09:27:34;;;;;;;18.23;6.20;;;;;;;11.52;47.96;93325.75;5025234;28;20093;-77
2024/02/09 09:30:00;;;;;;;20.15;7.35;;;;;;;11.64;47.01;93310.56;5025323;28;20029;-76
2024/02/09 09:32:25;;;;;;;21.45;6.65;;;;;;;11.74;47.25;93320.00;5025370;28;20041;-76
2024/02/09 09:34:51;;;;;;;26.42;6.75;;;;;;;11.87;46.31;93320.81;5025255;28;20029;-77
2024/02/09 09:37:16;;;;;;;39.83;8.20;;;;;;;11.99;46.20;93315.50;5025211;28;20094;-76
2024/02/09 09:39:41;;;;;;;23.77;6.43;;;;;;;12.08;46.36;93304.69;5025520;28;20021;-76
2024/02/09 09:42:07;;;;;;;14.75;6.55;;;;;;;12.21;45.97;93314.25;5025258;28;20112;-76
2024/02/09 09:44:33;;;;;;;32.88;8.10;;;;;;;12.38;45.64;93305.19;5025362;28;20022;-76
2024/02/09 09:46:58;;;;;;;33.83;5.80;;;;;;;12.51;45.41;93297.91;5025524;28;20032;-77
2024/02/09 09:49:26;;;;;;;14.43;5.10;;;;;;;12.63;44.71;93292.53;5024065;28;20319;-75
2024/02/09 09:51:55;;;;;;;29.48;5.80;;;;;;;12.78;44.00;93285.72;5024812;28;20046;-75
2024/02/09 09:54:23;;;;;;;22.83;6.95;;;;;;;12.83;43.87;93292.69;5025086;28;20087;-74
2024/02/09 09:56:49;;;;;;;20.08;6.15;;;;;;;12.89;43.79;93287.91;5024771;28;20026;-75
2024/02/09 09:59:17;;;;;;;19.50;5.93;;;;;;;12.98;43.02;93286.59;5024494;28;20101;-75
2024/02/09 10:01:46;;;;;;;24.27;7.70;;;;;;;13.07;43.23;93285.66;5024600;28;20021;-76
2024/02/09 10:04:11;;;;;;;20.02;6.78;;;;;;;13.16;42.96;93279.06;5024292;28;20022;-75
2024/02/09 10:06:37;;;;;;;35.90;7.95;;;;;;;13.22;42.76;93274.22;5024372;28;20080;-76
2024/02/09 10:09:04;;;;;;;20.08;7.28;;;;;;;13.34;42.09;93266.16;5024344;28;20088;-76
2024/02/09 10:11:32;;;;;;;16.23;5.55;;;;;;;13.39;41.99;93268.59;5024120;28;20021;-75
2024/02/09 10:13:57;;;;;;;15.57;5.93;;;;;;;13.51;41.60;93269.63;5024113;28;20022;-75
2024/02/09 10:16:23;;;;;;;20.35;6.38;;;;;;;13.64;41.57;93255.81;5023592;28;20059;-75
2024/02/09 10:18:48;;;;;;;17.95;5.95;;;;;;;13.78;41.17;93252.69;5023736;28;20040;-75
2024/02/09 10:21:14;;;;;;;16.30;6.40;;;;;;;13.94;40.83;93254.56;5024344;28;20026;-76
2024/02/09 10:23:39;;;;;;;24.92;6.07;;;;;;;14.06;40.55;93243.72;5024123;28;20036;-75
2024/02/09 10:26:05;;;;;;;21.35;6.05;;;;;;;14.16;40.39;93240.50;5024104;28;20045;-75
2024/02/09 10:28:33;;;;;;;14.57;5.78;;;;;;;14.24;39.61;93242.19;5023994;28;20386;-76
2024/02/09 10:31:02;;;;;;;23.70;7.40;;;;;;;14.31;39.69;93233.56;5024018;28;20087;-75
2024/02/09 10:33:28;;;;;;;17.73;6.35;;;;;;;14.44;39.61;93218.09;5023922;28;20021;-75
2024/02/09 10:35:57;;;;;;;40.63;5.82;;;;;;;14.52;39.37;93211.75;5024167;28;20029;-75
2024/02/09 10:38:23;;;;;;;14.45;6.13;;;;;;;14.59;38.47;93209.25;5023724;28;20021;-77
2024/02/09 10:40:54;;;;;;;17.15;6.85;;;;;;;14.62;38.41;93192.44;5024287;28;20044;-74
2024/02/09 10:43:22;;;;;;;24.70;7.00;;;;;;;14.58;38.89;93194.28;5023792;28;20021;-75
2024/02/09 10:45:50;;;;;;;28.35;6.78;;;;;;;14.58;38.94;93202.31;5023968;28;20132;-74
2024/02/09 10:48:20;;;;;;;13.70;5.72;;;;;;;14.54;38.78;93192.63;5023820;28;20033;-75
2024/02/09 10:50:46;;;;;;;14.60;5.30;;;;;;;14.52;38.63;93187.63;5023030;28;20076;-75
2024/02/09 10:53:22;;;;;;;18.35;5.43;;;;;;;14.46;38.99;93183.66;5023935;28;20038;-74
2024/02/09 10:55:54;;;;;;;11.00;5.25;;;;;;;14.47;39.33;93163.00;5023781;28;20017;-74
2024/02/09 10:58:20;;;;;;;27.27;5.80;;;;;;;14.50;39.02;93149.66;5023374;28;20025;-74
2024/02/09 11:00:46;;;;;;;34.17;6.50;;;;;;;14.49;39.17;93145.44;5023900;28;20021;-74
2024/02/09 11:03:11;;;;;;;17.83;6.05;;;;;;;14.44;39.44;93138.44;5023601;28;20021;-74
2024/02/09 11:05:38;;;;;;;13.70;5.65;;;;;;;14.54;39.55;93137.09;5023583;28;20152;-75
2024/02/09 11:08:04;;;;;;;27.30;6.25;;;;;;;14.64;39.55;93120.44;5023858;28;20018;-75
2024/02/09 11:10:30;;;;;;;20.88;6.57;;;;;;;14.75;39.38;93130.59;5023840;28;20093;-76
2024/02/09 11:13:00;;;;;;;18.48;6.85;;;;;;;14.85;38.95;93135.38;5023650;28;20228;-75
2024/02/09 11:15:33;;;;;;;22.27;6.50;;;;;;;14.96;38.93;93120.25;5023085;28;20044;-75
2024/02/09 11:17:59;;;;;;;14.07;7.20;;;;;;;15.07;38.89;93111.59;5023296;28;20096;-76
2024/02/09 11:20:25;;;;;;;18.95;6.28;;;;;;;15.22;38.62;93106.09;5023382;28;20216;-75
2024/02/09 11:22:59;;;;;;;21.00;5.65;;;;;;;15.40;37.83;93100.19;5023276;28;20052;-75
2024/02/09 11:25:27;;;;;;;21.77;5.88;;;;;;;15.46;37.32;93098.75;5022958;28;20045;-74
2024/02/09 11:27:54;;;;;;;18.60;6.70;;;;;;;15.49;37.51;93118.72;5023258;28;20018;-74
2024/02/09 11:30:20;;;;;;;20.10;5.95;;;;;;;15.44;37.55;93123.28;5023437;28;20071;-75
2024/02/09 11:32:48;;;;;;;18.83;4.93;;;;;;;15.47;36.92;93124.47;5023231;28;20033;-75
2024/02/09 11:35:15;;;;;;;15.98;4.82;;;;;;;15.54;37.04;93137.22;5023045;28;20030;-75
2024/02/09 11:37:44;;;;;;;17.77;4.90;;;;;;;15.55;36.58;93130.72;5023226;28;20036;-75
2024/02/09 11:40:11;;;;;;;17.40;5.72;;;;;;;15.35;37.14;93141.56;5023130;28;20041;-75
2024/02/09 11:42:37;;;;;;;14.35;5.63;;;;;;;15.31;35.99;93134.59;5022532;28;20029;-75
2024/02/09 11:45:03;;;;;;;11.23;5.00;;;;;;;15.19;36.18;93138.22;5021871;28;20022;-76
2024/02/09 11:47:30;;;;;;;24.88;5.60;;;;;;;14.99;36.47;93124.88;5023240;28;20343;-76
2024/02/09 11:49:55;;;;;;;20.73;5.32;;;;;;;14.91;37.01;93127.81;5023115;28;20029;-76
2024/02/09 11:52:20;;;;;;;14.63;6.30;;;;;;;14.87;37.67;93117.00;5022847;28;20056;-83
2024/02/09 11:54:48;;;;;;;15.05;5.82;;;;;;;14.94;38.17;93127.06;5023300;28;20046;-84
2024/02/09 11:57:13;;;;;;;15.60;5.63;;;;;;;15.07;37.91;93125.78;5023318;28;20038;-81
2024/02/09 11:59:39;;;;;;;20.95;5.63;;;;;;;15.19;37.72;93117.53;5023567;28;20026;-86
2024/02/09 12:02:06;;;;;;;15.63;5.10;;;;;;;15.24;38.01;93111.06;5023588;28;20048;-83
2024/02/09 12:04:32;;;;;;;17.67;5.35;;;;;;;15.32;37.54;93107.38;5023290;28;20026;-84
2024/02/09 12:06:59;;;;;;;14.48;5.72;;;;;;;15.45;37.16;93103.34;5024169;28;20060;-83
2024/02/09 12:09:26;;;;;;;12.45;4.82;;;;;;;15.61;36.97;93100.50;5023760;28;20030;-85
2024/02/09 12:11:51;;;;;;;14.65;6.13;;;;;;;15.69;36.39;93104.03;5023042;28;20030;-83
2024/02/09 12:14:17;;;;;;;15.85;5.60;;;;;;;15.69;36.75;93104.03;5025182;28;20048;-83
2024/02/09 12:16:43;;;;;;;18.50;5.70;;;;;;;15.70;36.33;93092.19;5023164;28;20093;-83
2024/02/09 12:19:10;;;;;;;16.98;7.10;;;;;;;15.73;36.43;93101.44;5029776;28;20025;-88
2024/02/09 12:21:35;;;;;;;16.25;5.47;;;;;;;15.81;36.67;93108.47;5032991;28;20021;-90
2024/02/09 12:24:01;;;;;;;15.63;6.75;;;;;;;15.93;35.64;93088.66;5035761;28;20120;-89
2024/02/09 12:26:26;;;;;;;21.08;5.97;;;;;;;16.03;35.36;93090.69;5033840;28;20025;-89
2024/02/09 12:28:52;;;;;;;17.50;6.20;;;;;;;16.17;35.18;93085.50;5033886;28;20041;-88
2024/02/09 12:31:19;;;;;;;18.00;5.28;;;;;;;16.35;35.20;93088.38;5035274;28;20041;-89
2024/02/09 12:33:49;;;;;;;16.63;6.60;;;;;;;16.50;34.69;93083.91;5033775;28;20021;-88
2024/02/09 12:36:21;;;;;;;16.05;5.43;;;;;;;16.69;34.46;93084.88;5031869;28;20046;-88
2024/02/09 12:38:54;;;;;;;20.25;5.80;;;;;;;16.86;34.30;93084.28;5032566;28;20049;-88
2024/02/09 12:41:20;;;;;;;19.83;5.22;;;;;;;16.83;34.06;93098.47;5033737;28;20044;-88
2024/02/09 12:43:57;;;;;;;25.17;6.18;;;;;;;16.87;33.63;93096.59;5035107;28;20018;-88
2024/02/09 12:46:26;;;;;;;18.05;4.60;;;;;;;17.02;33.13;93081.34;5034694;28;20100;-88
2024/02/09 12:48:51;;;;;;;19.20;5.10;;;;;;;17.15;32.75;93084.53;5033116;28;20141;-88
2024/02/09 12:51:18;;;;;;;13.10;4.93;;;;;;;17.23;32.82;93075.34;5032725;28;20030;-87
2024/02/09 12:53:43;;;;;;;15.65;4.68;;;;;;;17.37;32.32;93085.47;5029548;28;20098;-88
2024/02/09 12:56:11;;;;;;;17.17;4.65;;;;;;;17.30;32.09;93080.81;5029818;28;20038;-89
2024/02/09 12:58:36;;;;;;;16.40;4.90;;;;;;;17.36;32.72;93068.53;5032903;28;20026;-88
2024/02/09 13:01:03;;;;;;;15.48;4.93;;;;;;;17.46;32.77;93077.81;5031538;28;20041;-88
2024/02/09 13:03:28;;;;;;;13.73;5.25;;;;;;;17.55;32.61;93080.19;5031055;28;20084;-87
2024/02/09 13:05:54;;;;;;;16.35;4.88;;;;;;;17.57;32.18;93088.69;5030217;28;20041;-85
2024/02/09 13:08:21;;;;;;;15.95;5.40;;;;;;;17.59;32.41;93087.16;5033057;28;20317;-87
2024/02/09 13:10:48;;;;;;;19.63;4.90;;;;;;;17.62;31.76;93078.28;5029955;28;20296;-87
2024/02/09 13:13:15;;;;;;;24.13;5.47;;;;;;;17.49;32.00;93076.31;5028551;28;20022;-87
2024/02/09 13:15:42;;;;;;;14.95;4.82;;;;;;;17.61;32.24;93076.00;5029064;28;20105;-88